Terminal Aerodrome Forecast
Issued by NWS

Home | Current Version | Previous Version | Graphics & Text | Print | Product List | Glossary On
Versions: 1 2 3 4 5 6 7 8 9 10 11 12 13 14 15
000
FTUS43 KICT 071140 AAA
TAFHUT
TAF AMD
KHUT 071140Z 0712/0812 07010KT P6SM OVC070
     FM071700 05012KT P6SM -SN SCT025 OVC040
     FM072100 02012G18KT P6SM SCT025 OVC040
      TEMPO 0723/0802 BKN025
     FM080200 35011KT P6SM SCT150=

USA.gov is the U.S. government's official web portal to all federal, state and local government web resources and services.